SHT8K EGCC-EGLL
Flight info
| Callsign | SHT8K |
|---|---|
| Flight time | 0h 34m |
| Altitude | 26000 |
| Route | LISTO L612 HON |
| Aircraft | A319/M-SDE3FGHIRWY/LB1 |
Departure
| Time | 2026-05-06 15:29 |
|---|---|
| Airport | Manchester Airport (EGCC) |
Arrival
| Time | 2026-05-06 16:03 |
|---|---|
| Airport | London Heathrow Airport (EGLL) |
| Time | Latitude | Longitude | Altitude | Speed | Heading |
|---|---|---|---|---|---|
| 2026-05-06 15:07 | 53.36245 | -2.27698 | 255 ft | 0 kts | 195° |
| 2026-05-06 15:16 | 53.36257 | -2.27693 | 256 ft | 4 kts | 193° |
| 2026-05-06 15:17 | 53.36284 | -2.27682 | 256 ft | 4 kts | 194° |
| 2026-05-06 15:17 | 53.36309 | -2.27671 | 256 ft | 4 kts | 199° |
| 2026-05-06 15:17 | 53.36323 | -2.27661 | 256 ft | 2 kts | 249° |
| 2026-05-06 15:17 | 53.36324 | -2.27643 | 256 ft | 2 kts | 283° |
| 2026-05-06 15:18 | 53.36323 | -2.27639 | 255 ft | 0 kts | 279° |
| 2026-05-06 15:20 | 53.36323 | -2.27640 | 255 ft | 1 kts | 279° |
| 2026-05-06 15:20 | 53.36334 | -2.27711 | 255 ft | 11 kts | 285° |
| 2026-05-06 15:21 | 53.36348 | -2.27782 | 255 ft | 1 kts | 294° |
| 2026-05-06 15:21 | 53.36385 | -2.27853 | 255 ft | 13 kts | 314° |
| 2026-05-06 15:21 | 53.36364 | -2.27988 | 255 ft | 15 kts | 223° |
| 2026-05-06 15:21 | 53.36266 | -2.28076 | 255 ft | 17 kts | 202° |
| 2026-05-06 15:22 | 53.36155 | -2.28150 | 255 ft | 16 kts | 151° |
| 2026-05-06 15:22 | 53.36102 | -2.28061 | 255 ft | 11 kts | 135° |
| 2026-05-06 15:22 | 53.36037 | -2.27967 | 255 ft | 14 kts | 140° |
| 2026-05-06 15:22 | 53.35988 | -2.27897 | 255 ft | 0 kts | 140° |
| 2026-05-06 15:23 | 53.35956 | -2.27858 | 255 ft | 12 kts | 152° |
| 2026-05-06 15:23 | 53.35841 | -2.27859 | 252 ft | 20 kts | 185° |
| 2026-05-06 15:23 | 53.35747 | -2.27875 | 247 ft | 13 kts | 186° |
| 2026-05-06 15:24 | 53.35651 | -2.27890 | 242 ft | 7 kts | 185° |
| 2026-05-06 15:24 | 53.35595 | -2.27957 | 239 ft | 13 kts | 233° |
| 2026-05-06 15:24 | 53.35539 | -2.28070 | 234 ft | 8 kts | 223° |
| 2026-05-06 15:24 | 53.35482 | -2.28132 | 234 ft | 11 kts | 206° |
| 2026-05-06 15:25 | 53.35408 | -2.28161 | 236 ft | 11 kts | 187° |
| 2026-05-06 15:25 | 53.35317 | -2.28199 | 235 ft | 16 kts | 206° |
| 2026-05-06 15:25 | 53.35237 | -2.28296 | 232 ft | 7 kts | 225° |
| 2026-05-06 15:25 | 53.35199 | -2.28370 | 230 ft | 11 kts | 230° |
| 2026-05-06 15:26 | 53.35138 | -2.28494 | 227 ft | 16 kts | 231° |
| 2026-05-06 15:26 | 53.35068 | -2.28640 | 229 ft | 16 kts | 231° |
| 2026-05-06 15:26 | 53.34981 | -2.28798 | 226 ft | 20 kts | 226° |
| 2026-05-06 15:26 | 53.34891 | -2.28957 | 222 ft | 20 kts | 226° |
| 2026-05-06 15:27 | 53.34787 | -2.29080 | 218 ft | 19 kts | 187° |
| 2026-05-06 15:27 | 53.34675 | -2.28996 | 218 ft | 12 kts | 132° |
| 2026-05-06 15:27 | 53.34677 | -2.28928 | 226 ft | 0 kts | 47° |
| 2026-05-06 15:28 | 53.34729 | -2.28828 | 222 ft | 34 kts | 50° |
| 2026-05-06 15:28 | 53.35005 | -2.28260 | 232 ft | 91 kts | 51° |
| 2026-05-06 15:28 | 53.35521 | -2.27192 | 253 ft | 143 kts | 51° |
| 2026-05-06 15:28 | 53.36161 | -2.25848 | 755 ft | 148 kts | 50° |
| 2026-05-06 15:29 | 53.36820 | -2.24532 | 1435 ft | 148 kts | 51° |
| 2026-05-06 15:29 | 53.37442 | -2.23164 | 2069 ft | 148 kts | 63° |
| 2026-05-06 15:29 | 53.37632 | -2.21392 | 2454 ft | 168 kts | 95° |
| 2026-05-06 15:29 | 53.37145 | -2.19470 | 2782 ft | 196 kts | 129° |
| 2026-05-06 15:30 | 53.35987 | -2.18031 | 3192 ft | 220 kts | 146° |
| 2026-05-06 15:30 | 53.34517 | -2.16895 | 3638 ft | 249 kts | 167° |
| 2026-05-06 15:30 | 53.32727 | -2.16947 | 4473 ft | 263 kts | 185° |
| 2026-05-06 15:30 | 53.30886 | -2.17280 | 5486 ft | 269 kts | 185° |
| 2026-05-06 15:31 | 53.29011 | -2.17597 | 6519 ft | 273 kts | 186° |
| 2026-05-06 15:31 | 53.27097 | -2.17907 | 7443 ft | 278 kts | 186° |
| 2026-05-06 15:31 | 53.25155 | -2.18218 | 8403 ft | 282 kts | 186° |
| 2026-05-06 15:32 | 53.21164 | -2.18847 | 10185 ft | 294 kts | 186° |
| 2026-05-06 15:32 | 53.19037 | -2.19183 | 10524 ft | 318 kts | 187° |
| 2026-05-06 15:32 | 53.16778 | -2.19520 | 10851 ft | 339 kts | 184° |
| 2026-05-06 15:32 | 53.14393 | -2.19309 | 11500 ft | 348 kts | 172° |
| 2026-05-06 15:33 | 53.12028 | -2.18294 | 12259 ft | 354 kts | 160° |
| 2026-05-06 15:33 | 53.09734 | -2.16722 | 13024 ft | 359 kts | 158° |
| 2026-05-06 15:33 | 53.07419 | -2.15113 | 13781 ft | 363 kts | 158° |
| 2026-05-06 15:33 | 53.05076 | -2.13490 | 14443 ft | 367 kts | 159° |
| 2026-05-06 15:34 | 53.02704 | -2.11853 | 15128 ft | 371 kts | 159° |
| 2026-05-06 15:34 | 53.00314 | -2.10210 | 15814 ft | 374 kts | 159° |
| 2026-05-06 15:34 | 52.97899 | -2.08555 | 16476 ft | 377 kts | 159° |
| 2026-05-06 15:34 | 52.95460 | -2.06880 | 17152 ft | 381 kts | 159° |
| 2026-05-06 15:35 | 52.93003 | -2.05193 | 17829 ft | 384 kts | 159° |
| 2026-05-06 15:35 | 52.90519 | -2.03489 | 18480 ft | 388 kts | 159° |
| 2026-05-06 15:35 | 52.88020 | -2.01777 | 18904 ft | 391 kts | 159° |
| 2026-05-06 15:35 | 52.85502 | -2.00050 | 19024 ft | 392 kts | 159° |
| 2026-05-06 15:36 | 52.82961 | -1.98308 | 19052 ft | 397 kts | 159° |
| 2026-05-06 15:36 | 52.80409 | -1.96563 | 19043 ft | 398 kts | 159° |
| 2026-05-06 15:36 | 52.77843 | -1.94814 | 19044 ft | 398 kts | 159° |
| 2026-05-06 15:36 | 52.75311 | -1.93092 | 19049 ft | 398 kts | 159° |
| 2026-05-06 15:37 | 52.72754 | -1.91353 | 19038 ft | 398 kts | 159° |
| 2026-05-06 15:37 | 52.70189 | -1.89611 | 19042 ft | 398 kts | 159° |
| 2026-05-06 15:37 | 52.67629 | -1.87875 | 19047 ft | 398 kts | 159° |
| 2026-05-06 15:37 | 52.65068 | -1.86141 | 19032 ft | 398 kts | 159° |
| 2026-05-06 15:38 | 52.62511 | -1.84413 | 19032 ft | 398 kts | 159° |
| 2026-05-06 15:38 | 52.59945 | -1.82682 | 19031 ft | 398 kts | 159° |
| 2026-05-06 15:38 | 52.57381 | -1.80953 | 19029 ft | 398 kts | 159° |
| 2026-05-06 15:38 | 52.54822 | -1.79228 | 19025 ft | 398 kts | 159° |
| 2026-05-06 15:39 | 52.52265 | -1.77499 | 19028 ft | 398 kts | 159° |
| 2026-05-06 15:39 | 52.49703 | -1.75769 | 19018 ft | 398 kts | 159° |
| 2026-05-06 15:39 | 52.47145 | -1.74049 | 19024 ft | 398 kts | 159° |
| 2026-05-06 15:39 | 52.44620 | -1.72356 | 19028 ft | 398 kts | 159° |
| 2026-05-06 15:40 | 52.42021 | -1.70614 | 19029 ft | 398 kts | 159° |
| 2026-05-06 15:40 | 52.39491 | -1.68923 | 19023 ft | 398 kts | 159° |
| 2026-05-06 15:40 | 52.36950 | -1.67138 | 19029 ft | 398 kts | 154° |
| 2026-05-06 15:40 | 52.34586 | -1.64754 | 19030 ft | 400 kts | 144° |
| 2026-05-06 15:41 | 52.32429 | -1.61797 | 19024 ft | 401 kts | 140° |
| 2026-05-06 15:41 | 52.30347 | -1.58848 | 19024 ft | 401 kts | 140° |
| 2026-05-06 15:41 | 52.28240 | -1.55873 | 19025 ft | 401 kts | 140° |
| 2026-05-06 15:41 | 52.26126 | -1.52903 | 19014 ft | 399 kts | 140° |
| 2026-05-06 15:42 | 52.24333 | -1.50392 | 18808 ft | 390 kts | 140° |
| 2026-05-06 15:42 | 52.23332 | -1.48990 | 18648 ft | 386 kts | 140° |
| 2026-05-06 15:42 | 52.21310 | -1.46153 | 18219 ft | 381 kts | 140° |
| 2026-05-06 15:43 | 52.19313 | -1.43354 | 17644 ft | 377 kts | 140° |
| 2026-05-06 15:43 | 52.17333 | -1.40583 | 17079 ft | 374 kts | 140° |
| 2026-05-06 15:43 | 52.15365 | -1.37834 | 16533 ft | 371 kts | 140° |
| 2026-05-06 15:43 | 52.13407 | -1.35103 | 15963 ft | 369 kts | 140° |
| 2026-05-06 15:44 | 52.11461 | -1.32393 | 15423 ft | 367 kts | 140° |
| 2026-05-06 15:44 | 52.09529 | -1.29710 | 14908 ft | 363 kts | 140° |
| 2026-05-06 15:44 | 52.07611 | -1.27047 | 14378 ft | 361 kts | 140° |
| 2026-05-06 15:44 | 52.05732 | -1.24436 | 13852 ft | 359 kts | 140° |
| 2026-05-06 15:45 | 52.03832 | -1.21798 | 13308 ft | 355 kts | 140° |
| 2026-05-06 15:45 | 52.01964 | -1.19206 | 12740 ft | 353 kts | 140° |
| 2026-05-06 15:45 | 52.00101 | -1.16624 | 12165 ft | 351 kts | 140° |
| 2026-05-06 15:45 | 51.98246 | -1.14058 | 11620 ft | 349 kts | 140° |
| 2026-05-06 15:46 | 51.96405 | -1.11522 | 11151 ft | 345 kts | 140° |
| 2026-05-06 15:46 | 51.94576 | -1.09008 | 10660 ft | 343 kts | 139° |
| 2026-05-06 15:46 | 51.92794 | -1.06559 | 10528 ft | 329 kts | 139° |
| 2026-05-06 15:46 | 51.91083 | -1.04211 | 10402 ft | 316 kts | 139° |
| 2026-05-06 15:47 | 51.89436 | -1.01949 | 10182 ft | 308 kts | 137° |
| 2026-05-06 15:47 | 51.88151 | -0.99234 | 9972 ft | 300 kts | 118° |
| 2026-05-06 15:47 | 51.87139 | -0.96353 | 9843 ft | 290 kts | 117° |
| 2026-05-06 15:47 | 51.86154 | -0.93550 | 9708 ft | 281 kts | 117° |
| 2026-05-06 15:48 | 51.85199 | -0.90830 | 9578 ft | 274 kts | 118° |
| 2026-05-06 15:48 | 51.84286 | -0.88221 | 9417 ft | 267 kts | 117° |
| 2026-05-06 15:48 | 51.83383 | -0.85634 | 9219 ft | 262 kts | 118° |
| 2026-05-06 15:48 | 51.82492 | -0.83087 | 8942 ft | 259 kts | 117° |
| 2026-05-06 15:49 | 51.81606 | -0.80558 | 8555 ft | 258 kts | 118° |
| 2026-05-06 15:49 | 51.80726 | -0.78047 | 8225 ft | 255 kts | 117° |
| 2026-05-06 15:49 | 51.79853 | -0.75555 | 7997 ft | 255 kts | 117° |
| 2026-05-06 15:49 | 51.78983 | -0.73065 | 8001 ft | 254 kts | 118° |
| 2026-05-06 15:50 | 51.78408 | -0.71421 | 8002 ft | 255 kts | 117° |
| 2026-05-06 15:50 | 51.77534 | -0.68933 | 8002 ft | 253 kts | 118° |
| 2026-05-06 15:50 | 51.76664 | -0.66459 | 7999 ft | 254 kts | 118° |
| 2026-05-06 15:50 | 51.75780 | -0.63948 | 8002 ft | 258 kts | 118° |
| 2026-05-06 15:51 | 51.74833 | -0.61495 | 7995 ft | 258 kts | 127° |
| 2026-05-06 15:51 | 51.73665 | -0.59287 | 8004 ft | 257 kts | 130° |
| 2026-05-06 15:51 | 51.72465 | -0.57133 | 8035 ft | 258 kts | 131° |
| 2026-05-06 15:51 | 51.71272 | -0.54995 | 8039 ft | 257 kts | 130° |
| 2026-05-06 15:52 | 51.70069 | -0.52848 | 8044 ft | 258 kts | 131° |
| 2026-05-06 15:52 | 51.68874 | -0.50711 | 8046 ft | 255 kts | 131° |
| 2026-05-06 15:52 | 51.67509 | -0.48923 | 7991 ft | 254 kts | 156° |
| 2026-05-06 15:52 | 51.65788 | -0.48419 | 8003 ft | 253 kts | 187° |
| 2026-05-06 15:53 | 51.64160 | -0.49361 | 7998 ft | 252 kts | 219° |
| 2026-05-06 15:53 | 51.63055 | -0.51464 | 7974 ft | 245 kts | 245° |
| 2026-05-06 15:53 | 51.62367 | -0.53950 | 7624 ft | 242 kts | 251° |
| 2026-05-06 15:53 | 51.61740 | -0.56460 | 7260 ft | 242 kts | 251° |
| 2026-05-06 15:54 | 51.61131 | -0.58977 | 6903 ft | 240 kts | 251° |
| 2026-05-06 15:54 | 51.60532 | -0.61488 | 6552 ft | 240 kts | 251° |
| 2026-05-06 15:54 | 51.59949 | -0.63990 | 6190 ft | 238 kts | 251° |
| 2026-05-06 15:54 | 51.59380 | -0.66482 | 5816 ft | 237 kts | 252° |
| 2026-05-06 15:55 | 51.58970 | -0.69029 | 5428 ft | 234 kts | 259° |
| 2026-05-06 15:55 | 51.58655 | -0.71603 | 5056 ft | 233 kts | 262° |
| 2026-05-06 15:55 | 51.58335 | -0.74148 | 4693 ft | 232 kts | 261° |
| 2026-05-06 15:55 | 51.58010 | -0.76682 | 4303 ft | 231 kts | 262° |
| 2026-05-06 15:56 | 51.57631 | -0.79189 | 3959 ft | 229 kts | 256° |
| 2026-05-06 15:56 | 51.57012 | -0.81469 | 3817 ft | 221 kts | 234° |
| 2026-05-06 15:56 | 51.55799 | -0.82838 | 3687 ft | 211 kts | 196° |
| 2026-05-06 15:56 | 51.54397 | -0.83141 | 3572 ft | 199 kts | 183° |
| 2026-05-06 15:57 | 51.53035 | -0.83221 | 3258 ft | 198 kts | 181° |
| 2026-05-06 15:57 | 51.51656 | -0.83293 | 3022 ft | 199 kts | 181° |
| 2026-05-06 15:57 | 51.50296 | -0.83004 | 2992 ft | 199 kts | 153° |
| 2026-05-06 15:57 | 51.49267 | -0.81592 | 3010 ft | 195 kts | 125° |
| 2026-05-06 15:58 | 51.48467 | -0.79854 | 3002 ft | 192 kts | 121° |
| 2026-05-06 15:58 | 51.47790 | -0.78033 | 2994 ft | 188 kts | 106° |
| 2026-05-06 15:58 | 51.47618 | -0.76001 | 3005 ft | 179 kts | 86° |
| 2026-05-06 15:58 | 51.47618 | -0.74084 | 3000 ft | 167 kts | 84° |
| 2026-05-06 15:59 | 51.47628 | -0.72237 | 2965 ft | 165 kts | 85° |
| 2026-05-06 15:59 | 51.47638 | -0.70406 | 2812 ft | 164 kts | 85° |
| 2026-05-06 15:59 | 51.47649 | -0.68583 | 2611 ft | 164 kts | 85° |
| 2026-05-06 15:59 | 51.47659 | -0.66764 | 2393 ft | 162 kts | 85° |
| 2026-05-06 16:00 | 51.47669 | -0.64961 | 2183 ft | 161 kts | 84° |
| 2026-05-06 16:00 | 51.47679 | -0.63171 | 1958 ft | 159 kts | 85° |
| 2026-05-06 16:00 | 51.47688 | -0.61395 | 1738 ft | 155 kts | 85° |
| 2026-05-06 16:00 | 51.47694 | -0.59757 | 1521 ft | 140 kts | 86° |
| 2026-05-06 16:01 | 51.47702 | -0.58251 | 1343 ft | 131 kts | 83° |
| 2026-05-06 16:01 | 51.47710 | -0.56816 | 1160 ft | 128 kts | 84° |
| 2026-05-06 16:01 | 51.47717 | -0.55376 | 987 ft | 127 kts | 84° |
| 2026-05-06 16:01 | 51.47724 | -0.53978 | 816 ft | 127 kts | 84° |
| 2026-05-06 16:02 | 51.47733 | -0.52538 | 631 ft | 127 kts | 83° |
| 2026-05-06 16:02 | 51.47747 | -0.51132 | 443 ft | 129 kts | 84° |
| 2026-05-06 16:02 | 51.47752 | -0.49696 | 272 ft | 128 kts | 85° |
| 2026-05-06 16:02 | 51.47751 | -0.48283 | 125 ft | 126 kts | 84° |
| 2026-05-06 16:03 | 51.47761 | -0.47006 | 88 ft | 90 kts | 90° |
| 2026-05-06 16:03 | 51.47759 | -0.46487 | 89 ft | 2 kts | 91° |
| 2026-05-06 16:03 | 51.47759 | -0.46412 | 88 ft | 19 kts | 89° |
| 2026-05-06 16:03 | 51.47709 | -0.46147 | 87 ft | 26 kts | 148° |
| 2026-05-06 16:04 | 51.47599 | -0.46081 | 87 ft | 16 kts | 217° |
| 2026-05-06 16:04 | 51.47592 | -0.46260 | 86 ft | 18 kts | 273° |
| 2026-05-06 16:04 | 51.47593 | -0.46474 | 86 ft | 21 kts | 269° |
| 2026-05-06 16:04 | 51.47592 | -0.46720 | 86 ft | 23 kts | 269° |
| 2026-05-06 16:05 | 51.47584 | -0.46905 | 87 ft | 13 kts | 266° |
| 2026-05-06 16:05 | 51.47582 | -0.47065 | 89 ft | 16 kts | 270° |
| 2026-05-06 16:05 | 51.47582 | -0.47255 | 88 ft | 18 kts | 269° |
| 2026-05-06 16:05 | 51.47580 | -0.47477 | 86 ft | 21 kts | 269° |
| 2026-05-06 16:06 | 51.47581 | -0.47647 | 88 ft | 13 kts | 269° |
| 2026-05-06 16:06 | 51.47580 | -0.47812 | 86 ft | 17 kts | 269° |
| 2026-05-06 16:06 | 51.47579 | -0.48028 | 88 ft | 22 kts | 270° |
| 2026-05-06 16:06 | 51.47578 | -0.48309 | 89 ft | 25 kts | 269° |
| 2026-05-06 16:07 | 51.47545 | -0.48487 | 88 ft | 11 kts | 195° |
| 2026-05-06 16:07 | 51.47456 | -0.48476 | 87 ft | 15 kts | 177° |
| 2026-05-06 16:07 | 51.47334 | -0.48474 | 86 ft | 20 kts | 179° |
| 2026-05-06 16:07 | 51.47218 | -0.48473 | 86 ft | 8 kts | 180° |
| 2026-05-06 16:08 | 51.47183 | -0.48507 | 88 ft | 7 kts | 269° |
| 2026-05-06 16:08 | 51.47188 | -0.48570 | 86 ft | 1 kts | 273° |
| 2026-05-06 16:08 | 51.47188 | -0.48591 | 86 ft | 1 kts | 269° |
| 2026-05-06 16:08 | 51.47188 | -0.48602 | 86 ft | 0 kts | 269° |